Time;durP1;ratioP1;P1;durP2;ratioP2;P2;SDS_P1;SDS_P2;PMS_P1;PMS_P2;Temp;Humidity;BMP_temperature;BMP_pressure;BME280_temperature;BME280_humidity;BME280_pressure;Samples;Min_cycle;Max_cycle;Signal;HPM_P1;HPM_P2
2021/07/09 00:00:44;;;;;;;12.98;11.57;;;;;;;25.72;100.00;101678.03;4863444;29;20029;-76
2021/07/09 00:03:30;;;;;;;14.75;12.77;;;;;;;25.02;100.00;101678.06;4862927;29;20117;-76
2021/07/09 00:06:18;;;;;;;16.48;12.40;;;;;;;25.14;100.00;101671.94;4863034;29;20044;-76
2021/07/09 00:09:05;;;;;;;16.83;13.25;;;;;;;24.77;100.00;101668.00;4863646;29;20116;-76
2021/07/09 00:11:52;;;;;;;17.05;13.48;;;;;;;24.80;100.00;101677.66;4851045;29;20033;-76
2021/07/09 00:14:38;;;;;;;16.20;12.57;;;;;;;25.13;100.00;101667.53;4863795;29;20146;-76
2021/07/09 00:17:24;;;;;;;17.23;13.77;;;;;;;25.29;100.00;101661.16;4850746;29;20038;-76
2021/07/09 00:20:10;;;;;;;18.20;14.00;;;;;;;25.11;100.00;101683.72;4863193;29;20029;-76
2021/07/09 00:22:56;;;;;;;15.23;12.50;;;;;;;25.23;100.00;101674.91;4862189;29;20438;-75
2021/07/09 00:25:42;;;;;;;14.25;12.75;;;;;;;24.79;100.00;101682.16;4849520;29;20037;-76
2021/07/09 00:28:28;;;;;;;15.52;13.82;;;;;;;24.83;100.00;101677.47;4849916;29;20040;-76
2021/07/09 00:31:14;;;;;;;14.27;12.63;;;;;;;25.03;100.00;101659.19;4862404;29;20367;-76
2021/07/09 00:34:03;;;;;;;21.02;13.07;;;;;;;25.08;100.00;101661.59;4862804;29;20101;-76
2021/07/09 00:36:49;;;;;;;14.73;13.13;;;;;;;25.22;100.00;101659.75;4849374;29;20029;-75
2021/07/09 00:39:34;;;;;;;16.92;13.88;;;;;;;24.98;100.00;101660.44;4862676;29;20066;-76
2021/07/09 00:42:20;;;;;;;16.67;14.82;;;;;;;24.75;100.00;101663.69;4862089;29;20053;-76
2021/07/09 00:45:10;;;;;;;16.90;14.27;;;;;;;25.20;100.00;101656.31;4863259;29;20041;-76
2021/07/09 00:47:56;;;;;;;16.88;14.02;;;;;;;24.83;100.00;101664.91;4863034;29;20045;-75
2021/07/09 00:50:42;;;;;;;17.48;14.00;;;;;;;24.83;100.00;101662.25;4862377;29;20048;-76
2021/07/09 00:53:28;;;;;;;16.48;13.38;;;;;;;25.08;100.00;101658.91;4862014;29;20029;-76
2021/07/09 00:56:13;;;;;;;15.10;13.50;;;;;;;25.11;100.00;101659.56;4863826;29;20036;-75
2021/07/09 00:59:00;;;;;;;15.50;13.45;;;;;;;25.08;100.00;101651.72;4862136;29;20033;-76
2021/07/09 01:01:46;;;;;;;17.63;13.52;;;;;;;25.06;100.00;101647.41;4862031;29;20037;-76
2021/07/09 01:04:32;;;;;;;14.98;13.07;;;;;;;25.28;100.00;101658.56;4862390;29;20400;-76
2021/07/09 01:07:18;;;;;;;15.77;13.32;;;;;;;24.94;100.00;101653.53;4849881;29;20034;-76
2021/07/09 01:10:08;;;;;;;17.60;13.50;;;;;;;25.23;100.00;101650.75;4862202;29;20459;-76
2021/07/09 01:12:55;;;;;;;20.35;13.88;;;;;;;25.24;100.00;101657.84;4861333;29;20029;-76
2021/07/09 01:15:41;;;;;;;18.90;14.30;;;;;;;25.03;100.00;101648.47;4850276;29;20432;-76
2021/07/09 01:18:26;;;;;;;18.17;15.20;;;;;;;25.17;100.00;101652.97;4861869;29;20097;-76
2021/07/09 01:21:12;;;;;;;18.92;14.38;;;;;;;24.64;100.00;101658.09;4862771;29;20085;-76
2021/07/09 01:24:03;;;;;;;17.05;15.23;;;;;;;24.95;100.00;101663.31;4862097;29;20044;-76
2021/07/09 01:26:49;;;;;;;17.45;15.23;;;;;;;25.00;100.00;101663.88;4862402;29;20040;-76
2021/07/09 01:29:35;;;;;;;20.10;16.55;;;;;;;24.95;100.00;101668.69;4861653;29;20117;-76
2021/07/09 01:32:20;;;;;;;17.13;15.32;;;;;;;24.52;100.00;101674.88;4861879;29;20497;-75
2021/07/09 01:35:08;;;;;;;20.52;15.75;;;;;;;24.55;100.00;101670.19;4861937;29;20094;-75
2021/07/09 01:37:55;;;;;;;20.75;18.55;;;;;;;24.06;100.00;101681.25;4861519;29;20085;-75
2021/07/09 01:40:41;;;;;;;23.02;18.15;;;;;;;23.80;100.00;101676.47;4849120;29;20042;-75
2021/07/09 01:43:27;;;;;;;20.67;17.80;;;;;;;24.12;100.00;101676.38;4861189;29;20460;-75
2021/07/09 01:46:13;;;;;;;19.17;17.17;;;;;;;24.29;100.00;101678.06;4849072;29;20451;-75
2021/07/09 01:48:59;;;;;;;21.23;18.45;;;;;;;24.57;100.00;101675.47;4861457;29;20449;-75
2021/07/09 01:51:45;;;;;;;22.92;17.90;;;;;;;24.61;100.00;101669.00;4861327;29;20033;-75
2021/07/09 01:54:31;;;;;;;19.77;16.90;;;;;;;24.67;100.00;101682.06;4861294;29;20029;-75
2021/07/09 01:57:17;;;;;;;21.27;17.90;;;;;;;24.51;100.00;101678.53;4861849;29;20093;-75
2021/07/09 02:00:07;;;;;;;21.88;18.55;;;;;;;24.25;100.00;101681.88;4849404;29;20029;-75
2021/07/09 02:02:54;;;;;;;21.08;18.80;;;;;;;23.98;100.00;101683.50;4849848;29;20120;-75
2021/07/09 02:05:39;;;;;;;22.23;19.83;;;;;;;23.97;100.00;101695.13;4849576;29;20044;-75
2021/07/09 02:08:26;;;;;;;22.20;19.77;;;;;;;23.49;100.00;101701.41;4861507;29;20040;-75
2021/07/09 02:11:12;;;;;;;22.08;19.75;;;;;;;23.83;100.00;101703.91;4861577;29;20128;-75
2021/07/09 02:13:58;;;;;;;23.48;21.10;;;;;;;24.38;100.00;101696.25;4849429;29;20033;-76
2021/07/09 02:16:44;;;;;;;23.92;20.15;;;;;;;24.24;100.00;101698.91;4861407;29;20340;-76
2021/07/09 02:19:29;;;;;;;24.48;20.45;;;;;;;23.89;100.00;101698.22;4860982;29;20038;-75
2021/07/09 02:22:16;;;;;;;24.90;20.67;;;;;;;24.12;100.00;101704.97;4864083;29;20455;-75
2021/07/09 02:25:05;;;;;;;29.17;22.75;;;;;;;24.13;100.00;101709.38;4864123;29;20048;-75
2021/07/09 02:27:52;;;;;;;23.58;20.90;;;;;;;24.29;100.00;101707.53;4852275;29;20033;-75
2021/07/09 02:30:38;;;;;;;27.80;23.50;;;;;;;24.38;100.00;101697.13;4864644;29;20086;-76
2021/07/09 02:33:24;;;;;;;23.33;20.75;;;;;;;24.21;100.00;101697.28;4865231;29;20094;-76
2021/07/09 02:36:10;;;;;;;28.23;22.75;;;;;;;23.98;100.00;101700.41;4864606;29;20481;-76
2021/07/09 02:38:56;;;;;;;31.77;25.75;;;;;;;24.20;100.00;101703.59;4864735;29;20038;-76
2021/07/09 02:41:42;;;;;;;35.83;26.83;;;;;;;23.81;100.00;101699.59;4864557;29;20030;-76
2021/07/09 02:44:28;;;;;;;35.10;26.65;;;;;;;23.58;100.00;101698.22;4864822;29;20060;-76
2021/07/09 02:47:14;;;;;;;36.40;26.77;;;;;;;23.84;100.00;101707.47;4864587;29;20037;-76
2021/07/09 02:49:59;;;;;;;35.67;25.45;;;;;;;23.75;100.00;101706.16;4851481;29;20029;-76
2021/07/09 02:52:45;;;;;;;31.70;23.85;;;;;;;23.68;100.00;101703.91;4864454;29;20034;-76
2021/07/09 02:55:31;;;;;;;32.15;23.65;;;;;;;23.81;100.00;101707.63;4864102;29;20029;-76
2021/07/09 02:58:17;;;;;;;28.02;21.63;;;;;;;23.88;100.00;101696.50;4864345;29;20041;-76
2021/07/09 03:01:03;;;;;;;32.28;23.70;;;;;;;23.77;100.00;101700.72;4863850;29;20034;-76
2021/07/09 03:03:48;;;;;;;27.90;20.63;;;;;;;23.98;100.00;101697.72;4852185;29;20144;-76
2021/07/09 03:06:34;;;;;;;29.70;22.15;;;;;;;24.02;100.00;101699.28;4850944;29;20097;-76
2021/07/09 03:09:20;;;;;;;32.60;23.10;;;;;;;23.92;100.00;101695.41;4864672;29;20037;-75
2021/07/09 03:12:06;;;;;;;45.30;27.05;;;;;;;23.59;100.00;101694.63;4864301;29;20048;-76
2021/07/09 03:14:52;;;;;;;53.58;32.63;;;;;;;23.65;100.00;101698.72;4864262;29;20467;-75
2021/07/09 03:17:39;;;;;;;57.85;34.53;;;;;;;23.62;100.00;101689.06;4863294;29;20045;-75
2021/07/09 03:20:25;;;;;;;51.88;32.47;;;;;;;24.16;100.00;101695.81;4864229;29;20293;-76
2021/07/09 03:23:11;;;;;;;49.30;32.03;;;;;;;23.97;100.00;101697.81;4863733;29;20033;-76
2021/07/09 03:26:00;;;;;;;40.58;27.90;;;;;;;23.89;100.00;101694.69;4863468;29;20481;-75
2021/07/09 03:28:46;;;;;;;43.75;28.13;;;;;;;23.63;100.00;101695.28;4864315;29;20079;-76
2021/07/09 03:31:32;;;;;;;39.78;28.08;;;;;;;23.97;100.00;101690.66;4851440;29;20033;-75
2021/07/09 03:34:18;;;;;;;32.05;24.77;;;;;;;23.96;100.00;101688.06;4851972;29;20026;-76
2021/07/09 03:37:04;;;;;;;31.52;21.85;;;;;;;23.87;100.00;101681.38;4863587;29;20041;-76
2021/07/09 03:39:50;;;;;;;28.38;20.73;;;;;;;23.84;100.00;101681.56;4851736;29;20101;-76
2021/07/09 03:42:36;;;;;;;22.85;18.88;;;;;;;23.80;100.00;101682.69;4850272;29;20353;-76
2021/07/09 03:45:21;;;;;;;21.73;18.85;;;;;;;23.90;100.00;101681.22;4862940;29;20036;-75
2021/07/09 03:48:07;;;;;;;19.50;17.50;;;;;;;24.04;100.00;101684.00;4862706;29;20112;-75
2021/07/09 03:50:53;;;;;;;19.75;16.90;;;;;;;24.08;100.00;101679.31;4863309;29;20033;-76
2021/07/09 03:53:39;;;;;;;19.33;17.25;;;;;;;23.92;100.00;101681.16;4862650;29;20072;-76
2021/07/09 03:56:28;;;;;;;18.52;16.70;;;;;;;24.10;100.00;101683.63;4863293;29;20060;-76
2021/07/09 03:59:14;;;;;;;22.02;18.10;;;;;;;24.31;100.00;101678.84;4863654;29;20033;-76
2021/07/09 04:02:00;;;;;;;20.60;18.27;;;;;;;24.35;100.00;101673.19;4863074;29;20115;-75
2021/07/09 04:04:46;;;;;;;23.75;18.77;;;;;;;24.29;100.00;101668.22;4863386;29;20033;-75
2021/07/09 04:07:31;;;;;;;19.42;17.15;;;;;;;24.50;100.00;101671.41;4849474;29;20101;-76
2021/07/09 04:10:17;;;;;;;18.45;16.35;;;;;;;24.41;100.00;101669.31;4862952;29;20040;-76
2021/07/09 04:13:03;;;;;;;19.23;16.90;;;;;;;24.17;100.00;101663.59;4849752;29;20098;-76
2021/07/09 04:15:49;;;;;;;18.27;16.30;;;;;;;24.42;100.00;101673.69;4863138;29;20033;-75
2021/07/09 04:18:35;;;;;;;20.20;15.70;;;;;;;24.46;100.00;101665.41;4862791;29;20379;-76
2021/07/09 04:21:21;;;;;;;21.08;15.57;;;;;;;24.73;100.00;101660.22;4862965;29;20037;-75
2021/07/09 04:24:07;;;;;;;18.92;16.05;;;;;;;24.72;100.00;101663.88;4862851;29;20108;-76
2021/07/09 04:26:53;;;;;;;19.60;16.05;;;;;;;24.70;100.00;101661.28;4863325;29;20371;-76
2021/07/09 04:29:39;;;;;;;18.33;15.32;;;;;;;24.66;100.00;101656.19;4862741;29;20124;-76
2021/07/09 04:32:25;;;;;;;17.38;15.60;;;;;;;24.39;100.00;101656.00;4862856;29;20060;-75
2021/07/09 04:35:12;;;;;;;17.10;14.35;;;;;;;24.87;100.00;101652.22;4862609;29;20034;-76
2021/07/09 04:37:57;;;;;;;18.45;14.80;;;;;;;25.06;100.00;101650.09;4862265;29;20470;-76
2021/07/09 04:40:43;;;;;;;16.67;14.98;;;;;;;25.38;100.00;101654.31;4862004;29;20109;-76
2021/07/09 04:43:29;;;;;;;17.77;14.77;;;;;;;25.31;100.00;101658.38;4848979;29;20114;-76
2021/07/09 04:46:15;;;;;;;16.33;14.60;;;;;;;25.67;100.00;101654.16;4862359;29;20478;-76
2021/07/09 04:49:01;;;;;;;17.63;14.40;;;;;;;25.51;100.00;101656.13;4861827;29;20049;-76
2021/07/09 04:51:47;;;;;;;17.05;14.20;;;;;;;25.46;100.00;101662.72;4861866;29;20022;-76
2021/07/09 04:54:32;;;;;;;16.38;14.18;;;;;;;25.67;100.00;101661.34;4862232;29;20072;-76
2021/07/09 04:57:18;;;;;;;16.42;13.57;;;;;;;25.78;100.00;101661.50;4862372;29;20408;-76
2021/07/09 05:00:05;;;;;;;19.77;15.75;;;;;;;25.37;100.00;101661.53;4862546;29;20029;-76
2021/07/09 05:02:51;;;;;;;16.90;14.65;;;;;;;25.67;100.00;101654.16;4850455;29;20371;-75
2021/07/09 05:05:37;;;;;;;24.92;14.95;;;;;;;25.82;100.00;101665.72;4862102;29;20037;-77
2021/07/09 05:08:23;;;;;;;18.98;15.38;;;;;;;25.92;100.00;101658.78;4862619;29;20036;-76
2021/07/09 05:11:08;;;;;;;17.83;14.68;;;;;;;26.23;100.00;101664.72;4862041;29;20029;-76
2021/07/09 05:13:54;;;;;;;20.15;15.98;;;;;;;26.30;100.00;101668.75;4861780;29;20539;-76
2021/07/09 05:16:40;;;;;;;18.10;16.10;;;;;;;25.95;100.00;101663.97;4862555;29;20202;-75
2021/07/09 05:19:26;;;;;;;17.73;15.63;;;;;;;26.38;100.00;101662.84;4861600;29;20058;-76
2021/07/09 05:22:11;;;;;;;23.40;17.10;;;;;;;26.24;100.00;101662.91;4861868;29;20376;-75
2021/07/09 05:24:58;;;;;;;19.85;16.50;;;;;;;26.25;100.00;101660.13;4861569;29;20029;-76
2021/07/09 05:27:43;;;;;;;21.15;17.10;;;;;;;26.60;100.00;101658.59;4861996;29;20052;-75
2021/07/09 05:30:29;;;;;;;20.70;15.68;;;;;;;26.62;100.00;101655.81;4861475;29;20033;-75
2021/07/09 05:33:15;;;;;;;19.65;16.80;;;;;;;26.44;100.00;101657.06;4863625;29;20037;-76
2021/07/09 05:36:01;;;;;;;20.45;16.55;;;;;;;26.42;100.00;101658.97;4864063;29;20041;-76
2021/07/09 05:38:48;;;;;;;23.77;16.55;;;;;;;26.75;100.00;101657.53;4861989;29;20124;-76
2021/07/09 05:41:33;;;;;;;20.17;16.75;;;;;;;27.06;100.00;101658.94;4861227;29;20030;-76
2021/07/09 05:44:19;;;;;;;20.60;16.63;;;;;;;27.38;100.00;101660.22;4861042;29;20117;-77
2021/07/09 05:47:05;;;;;;;23.63;16.98;;;;;;;27.45;100.00;101662.34;4850079;29;20435;-76
2021/07/09 05:49:51;;;;;;;21.33;16.70;;;;;;;27.66;100.00;101657.25;4849554;29;20029;-76
2021/07/09 05:52:37;;;;;;;20.73;16.27;;;;;;;27.80;100.00;101664.31;4849216;29;20037;-77
2021/07/09 05:55:23;;;;;;;24.48;20.10;;;;;;;27.95;100.00;101663.19;4861217;29;20040;-76
2021/07/09 05:58:09;;;;;;;24.15;17.85;;;;;;;28.07;100.00;101655.03;4853393;29;20041;-76
2021/07/09 06:00:55;;;;;;;18.98;14.90;;;;;;;27.74;100.00;101654.84;4865062;29;20112;-76
2021/07/09 06:03:41;;;;;;;20.08;13.50;;;;;;;27.80;100.00;101662.44;4865143;29;20091;-76
2021/07/09 06:06:26;;;;;;;16.15;12.98;;;;;;;27.41;100.00;101654.63;4864720;29;20101;-77
2021/07/09 06:09:12;;;;;;;17.40;13.40;;;;;;;27.73;100.00;101650.44;4865112;29;20108;-77
2021/07/09 06:11:59;;;;;;;19.35;14.43;;;;;;;27.72;100.00;101651.38;4864435;29;20021;-75
2021/07/09 06:14:45;;;;;;;18.38;15.07;;;;;;;27.98;100.00;101655.75;4866168;29;20057;-75
2021/07/09 06:17:30;;;;;;;18.67;14.60;;;;;;;28.11;100.00;101650.28;4864927;29;20029;-76
2021/07/09 06:20:16;;;;;;;21.80;15.20;;;;;;;28.22;100.00;101658.41;4865241;29;20042;-76
2021/07/09 06:23:02;;;;;;;19.65;15.05;;;;;;;28.06;100.00;101664.13;4864724;29;20101;-76
2021/07/09 06:25:48;;;;;;;18.83;15.10;;;;;;;27.51;100.00;101654.81;4864746;29;20428;-76
2021/07/09 06:28:34;;;;;;;22.95;14.70;;;;;;;28.06;100.00;101653.34;4865028;29;20040;-76
2021/07/09 06:31:19;;;;;;;20.08;13.93;;;;;;;27.67;100.00;101648.19;4864690;29;20061;-76
2021/07/09 06:34:05;;;;;;;22.08;15.20;;;;;;;27.79;100.00;101641.88;4864934;29;20059;-76
2021/07/09 06:36:51;;;;;;;17.02;13.77;;;;;;;28.02;100.00;101650.97;4864921;29;20037;-78
2021/07/09 06:39:37;;;;;;;16.20;13.90;;;;;;;28.34;100.00;101644.88;4865025;29;20092;-78
2021/07/09 06:42:23;;;;;;;14.18;12.07;;;;;;;28.81;100.00;101636.66;4851084;29;20129;-78
2021/07/09 06:45:09;;;;;;;17.08;13.50;;;;;;;28.79;100.00;101635.94;4864679;29;20037;-78
2021/07/09 06:48:06;;;;;;;16.23;12.80;;;;;;;28.56;100.00;101633.34;4852356;29;20037;-78
2021/07/09 06:50:52;;;;;;;15.60;11.88;;;;;;;28.84;100.00;101630.16;4853055;29;20040;-78
2021/07/09 06:53:39;;;;;;;15.52;12.27;;;;;;;28.55;100.00;101631.59;4864537;29;20383;-78
2021/07/09 06:56:31;;;;;;;15.73;12.38;;;;;;;28.40;100.00;101630.91;4852829;29;20058;-78
2021/07/09 06:59:17;;;;;;;13.63;12.07;;;;;;;28.70;100.00;101627.69;4865240;29;20033;-75
2021/07/09 07:02:06;;;;;;;14.05;11.38;;;;;;;28.97;100.00;101625.53;4853126;29;20026;-77
2021/07/09 07:04:52;;;;;;;13.68;11.98;;;;;;;28.61;100.00;101633.81;4863821;29;20044;-77
2021/07/09 07:07:38;;;;;;;15.00;10.85;;;;;;;28.89;100.00;101627.97;4850818;29;20064;-76
2021/07/09 07:10:35;;;;;;;11.68;10.48;;;;;;;28.82;100.00;101624.03;4851743;29;20130;-76
2021/07/09 07:13:23;;;;;;;13.68;11.25;;;;;;;29.30;100.00;101621.03;4864563;29;20025;-76
2021/07/09 07:16:09;;;;;;;11.93;10.18;;;;;;;28.64;100.00;101628.19;4867088;29;20037;-76
2021/07/09 07:18:55;;;;;;;12.20;10.32;;;;;;;28.94;100.00;101621.25;4866264;29;20093;-78
2021/07/09 07:21:41;;;;;;;11.70;8.38;;;;;;;28.95;100.00;101616.69;4854089;29;20030;-76
2021/07/09 07:24:27;;;;;;;11.55;9.93;;;;;;;28.97;100.00;101615.56;4865685;29;20431;-77
2021/07/09 07:27:12;;;;;;;12.35;9.35;;;;;;;28.79;100.00;101618.88;4853518;29;20029;-76
2021/07/09 07:30:15;;;;;;;9.73;8.77;;;;;;;29.10;100.00;101619.06;4865204;29;20025;-79
2021/07/09 07:33:04;;;;;;;11.93;10.10;;;;;;;28.91;100.00;101618.78;4865439;29;20036;-77
2021/07/09 07:35:51;;;;;;;12.55;9.70;;;;;;;29.72;100.00;101619.34;4864532;29;20029;-77
2021/07/09 07:38:37;;;;;;;11.43;10.23;;;;;;;29.74;100.00;101620.94;4867210;29;20474;-77
2021/07/09 07:41:23;;;;;;;12.23;9.23;;;;;;;29.90;100.00;101615.97;4852213;29;20038;-77
2021/07/09 07:44:12;;;;;;;11.85;9.98;;;;;;;30.05;100.00;101622.78;4852521;29;20053;-76
2021/07/09 07:46:58;;;;;;;10.02;8.95;;;;;;;30.50;100.00;101618.91;4864270;29;20139;-78
2021/07/09 07:49:44;;;;;;;10.63;9.32;;;;;;;30.51;100.00;101614.38;4863925;29;20030;-78
2021/07/09 07:52:30;;;;;;;13.98;10.20;;;;;;;29.99;100.00;101615.22;4864129;29;20033;-77
2021/07/09 07:55:18;;;;;;;15.82;11.30;;;;;;;30.80;100.00;101607.31;4850447;29;20093;-76
2021/07/09 07:58:08;;;;;;;12.35;11.10;;;;;;;30.76;100.00;101609.44;4864279;29;20523;-75
2021/07/09 08:00:58;;;;;;;15.10;10.68;;;;;;;30.89;100.00;101612.78;4851106;29;20176;-75
2021/07/09 08:03:44;;;;;;;16.65;12.15;;;;;;;30.52;100.00;101614.22;4863514;29;20352;-75
2021/07/09 08:06:29;;;;;;;15.20;12.48;;;;;;;31.15;100.00;101605.88;4863254;29;20124;-76
2021/07/09 08:09:18;;;;;;;18.10;11.35;;;;;;;30.64;100.00;101609.59;4864333;29;20440;-78
2021/07/09 08:12:05;;;;;;;17.63;10.65;;;;;;;31.19;100.00;101607.31;4850154;29;20025;-76
2021/07/09 08:14:51;;;;;;;13.10;10.75;;;;;;;31.73;100.00;101608.81;4865177;29;20447;-78
2021/07/09 08:17:36;;;;;;;16.40;10.40;;;;;;;31.80;100.00;101605.41;4862899;29;20394;-76
2021/07/09 08:20:22;;;;;;;13.32;10.20;;;;;;;31.69;100.00;101607.38;4862282;29;20030;-77
2021/07/09 08:23:08;;;;;;;11.38;10.10;;;;;;;31.89;100.00;101603.72;4862477;29;20451;-77
2021/07/09 08:25:54;;;;;;;12.52;10.00;;;;;;;31.79;100.00;101603.69;4850350;29;20025;-79
2021/07/09 08:28:40;;;;;;;16.38;10.35;;;;;;;31.82;100.00;101602.56;4850043;29;20464;-78
2021/07/09 08:31:26;;;;;;;13.02;9.60;;;;;;;32.54;100.00;101601.13;4862146;29;20124;-78
2021/07/09 08:34:11;;;;;;;13.77;9.45;;;;;;;32.47;100.00;101597.28;4863147;29;20025;-78
2021/07/09 08:36:57;;;;;;;14.75;8.68;;;;;;;33.16;100.00;101590.47;4849638;29;20025;-78
2021/07/09 08:39:43;;;;;;;10.93;8.32;;;;;;;32.96;100.00;101588.84;4863228;29;20025;-78
2021/07/09 08:42:30;;;;;;;12.07;8.68;;;;;;;32.63;100.00;101586.66;4848535;29;20178;-77
2021/07/09 08:45:15;;;;;;;11.65;8.93;;;;;;;33.05;100.00;101585.25;4863135;29;20037;-77
2021/07/09 08:48:01;;;;;;;13.65;8.57;;;;;;;32.32;100.00;101579.72;4862444;29;20034;-78
2021/07/09 08:50:47;;;;;;;12.70;9.73;;;;;;;32.90;100.00;101584.03;4863717;29;20426;-78
2021/07/09 08:53:33;;;;;;;12.65;8.48;;;;;;;33.07;100.00;101577.81;4862499;29;20076;-78
2021/07/09 08:56:20;;;;;;;11.50;8.15;;;;;;;33.16;100.00;101585.91;4863209;29;20025;-78
2021/07/09 08:59:05;;;;;;;11.43;8.57;;;;;;;33.23;100.00;101584.28;4848534;29;20408;-78
2021/07/09 09:01:57;;;;;;;13.00;8.30;;;;;;;33.39;100.00;101591.81;4849106;29;20033;-78
2021/07/09 09:04:44;;;;;;;11.48;8.30;;;;;;;33.62;99.03;101588.50;4863455;29;20053;-78
2021/07/09 09:07:30;;;;;;;9.02;7.55;;;;;;;33.27;100.00;101588.41;4848708;29;20392;-78
2021/07/09 09:10:31;;;;;;;11.13;7.80;;;;;;;32.74;100.00;101581.06;4863109;29;20037;-78
2021/07/09 09:13:23;;;;;;;9.15;7.85;;;;;;;32.27;100.00;101584.69;4861925;29;20017;-78
2021/07/09 09:16:10;;;;;;;9.80;7.95;;;;;;;32.76;100.00;101577.19;4861962;29;20060;-78
2021/07/09 09:18:57;;;;;;;12.27;8.35;;;;;;;32.93;99.57;101572.84;4862594;29;20037;-78
2021/07/09 09:21:43;;;;;;;10.93;7.95;;;;;;;33.47;95.94;101567.47;4863571;29;20545;-78
2021/07/09 09:24:28;;;;;;;14.13;7.88;;;;;;;33.52;98.31;101563.28;4849150;29;20039;-78
2021/07/09 09:27:21;;;;;;;8.32;7.20;;;;;;;33.78;96.85;101566.06;4863222;29;20029;-78
2021/07/09 09:30:14;;;;;;;10.20;7.13;;;;;;;33.55;96.60;101571.09;4849134;29;20451;-77
2021/07/09 09:33:03;;;;;;;11.27;7.38;;;;;;;33.83;93.56;101559.19;4849616;29;20461;-77
2021/07/09 09:35:55;;;;;;;8.35;7.53;;;;;;;33.68;91.08;101557.16;4861708;29;20033;-78
2021/07/09 09:38:49;;;;;;;11.05;7.32;;;;;;;33.83;92.41;101561.91;4863318;29;20033;-78
2021/07/09 09:41:35;;;;;;;12.00;6.65;;;;;;;33.58;94.54;101561.78;4861571;29;20043;-78
2021/07/09 09:44:23;;;;;;;9.13;6.65;;;;;;;33.34;95.33;101566.94;4850421;29;20045;-77
2021/07/09 09:47:14;;;;;;;11.02;7.32;;;;;;;33.54;94.05;101554.94;4863389;29;20040;-77
2021/07/09 09:50:03;;;;;;;9.00;6.97;;;;;;;33.96;92.93;101543.31;4849088;29;20034;-78
2021/07/09 09:52:51;;;;;;;10.45;7.20;;;;;;;33.80;95.29;101547.75;4863066;29;20412;-76
2021/07/09 09:55:37;;;;;;;8.05;7.07;;;;;;;33.37;93.16;101550.34;4863637;29;20112;-76
2021/07/09 09:58:23;;;;;;;7.63;6.40;;;;;;;33.29;91.84;101552.94;4850410;29;20029;-76
2021/07/09 10:01:09;;;;;;;12.13;6.70;;;;;;;33.61;87.45;101550.59;4862689;29;20093;-77
2021/07/09 10:03:55;;;;;;;9.40;6.95;;;;;;;33.48;89.49;101552.84;4850187;29;20049;-77
2021/07/09 10:06:43;;;;;;;9.07;6.50;;;;;;;32.66;93.75;101543.78;4862461;29;20026;-76
2021/07/09 10:09:29;;;;;;;11.30;6.72;;;;;;;33.26;92.81;101536.97;4850467;29;20041;-77
2021/07/09 10:12:19;;;;;;;9.32;6.82;;;;;;;33.11;89.28;101542.03;4836026;29;20467;-78
2021/07/09 10:15:06;;;;;;;15.77;7.07;;;;;;;33.20;92.62;101537.56;4862810;29;20459;-76
2021/07/09 10:17:54;;;;;;;11.23;6.57;;;;;;;33.01;92.54;101533.09;4862951;29;20033;-76
2021/07/09 10:20:46;;;;;;;8.70;6.50;;;;;;;32.64;89.19;101534.06;4862910;29;20094;-78
2021/07/09 10:23:32;;;;;;;7.50;6.55;;;;;;;32.61;91.45;101528.94;4861750;29;20112;-78
2021/07/09 10:26:18;;;;;;;8.05;6.38;;;;;;;32.94;88.92;101526.53;4862558;29;20109;-76
2021/07/09 10:29:18;;;;;;;11.52;6.50;;;;;;;33.41;85.28;101514.56;4862429;29;20116;-76
2021/07/09 10:32:06;;;;;;;9.55;6.00;;;;;;;33.19;80.36;101511.41;4862503;29;20044;-76
2021/07/09 10:34:52;;;;;;;9.63;5.75;;;;;;;33.45;79.00;101502.38;4863962;29;20034;-77
2021/07/09 10:37:38;;;;;;;6.53;5.80;;;;;;;32.93;83.58;101496.81;4862223;29;20033;-76
2021/07/09 10:44:15;;;;;;;9.13;6.18;;;;;;;33.31;83.90;101491.16;4864321;29;20057;-76
2021/07/09 10:47:17;;;;;;;8.50;6.05;;;;;;;33.73;81.10;101486.84;4866783;29;20033;-76
2021/07/09 10:50:05;;;;;;;10.35;6.15;;;;;;;33.32;78.90;101488.31;4865089;29;20129;-75
2021/07/09 10:53:00;;;;;;;10.07;5.88;;;;;;;33.81;79.30;101484.19;4864890;29;20511;-76
2021/07/09 10:55:48;;;;;;;8.75;5.70;;;;;;;33.53;79.70;101485.28;4864445;29;20047;-77
2021/07/09 10:58:42;;;;;;;7.32;5.47;;;;;;;33.29;81.18;101480.44;4865372;29;20060;-77
2021/07/09 11:01:38;;;;;;;8.85;5.43;;;;;;;33.36;77.18;101478.00;4865200;29;20090;-77
2021/07/09 11:04:36;;;;;;;8.45;5.22;;;;;;;33.51;72.21;101479.16;4865399;29;20097;-76
2021/07/09 11:07:22;;;;;;;7.65;5.70;;;;;;;33.23;76.99;101475.59;4864447;29;20367;-78
2021/07/09 11:10:08;;;;;;;8.95;5.88;;;;;;;33.43;76.69;101476.38;4852881;29;20040;-76
2021/07/09 11:12:54;;;;;;;9.18;5.88;;;;;;;33.11;75.80;101465.97;4865148;29;20038;-77
2021/07/09 11:15:39;;;;;;;10.10;5.65;;;;;;;33.15;77.23;101469.25;4852711;29;20368;-77
2021/07/09 11:18:25;;;;;;;8.07;5.10;;;;;;;33.29;75.41;101455.13;4864473;29;20047;-77
2021/07/09 11:21:11;;;;;;;8.07;4.97;;;;;;;33.70;68.92;101457.22;4864668;29;20120;-77
2021/07/09 11:24:01;;;;;;;8.30;5.65;;;;;;;34.15;66.85;101460.69;4864642;29;20432;-77
2021/07/09 11:26:52;;;;;;;11.52;4.80;;;;;;;34.02;64.74;101443.91;4865370;29;20040;-77
2021/07/09 11:29:44;;;;;;;9.20;4.82;;;;;;;34.68;61.82;101439.56;4865108;29;20094;-76
2021/07/09 11:32:31;;;;;;;6.78;4.57;;;;;;;34.52;57.37;101440.31;4865267;29;20044;-75
2021/07/09 11:35:17;;;;;;;7.10;4.45;;;;;;;34.79;52.62;101437.38;4863992;29;20029;-76
2021/07/09 11:38:07;;;;;;;7.28;4.15;;;;;;;34.03;51.14;101438.31;4864462;29;20040;-75
2021/07/09 11:41:07;;;;;;;5.53;4.05;;;;;;;33.43;46.13;101432.88;4865511;29;20368;-77
2021/07/09 11:43:53;;;;;;;10.63;3.88;;;;;;;33.06;46.25;101437.59;4864193;29;20117;-77
2021/07/09 11:46:40;;;;;;;5.78;3.40;;;;;;;33.70;44.73;101425.47;4850794;29;20116;-77
2021/07/09 11:49:29;;;;;;;6.38;3.92;;;;;;;34.48;44.85;101427.22;4863847;29;20044;-77
2021/07/09 11:52:21;;;;;;;7.50;4.18;;;;;;;34.66;42.46;101430.69;4863507;29;20037;-78
2021/07/09 11:55:13;;;;;;;4.82;3.60;;;;;;;34.39;42.53;101420.03;4852492;29;20093;-77
2021/07/09 11:58:05;;;;;;;4.32;3.33;;;;;;;33.98;40.71;101421.63;4863789;29;20114;-77
2021/07/09 12:00:54;;;;;;;9.07;3.95;;;;;;;33.93;43.21;101425.84;4864212;29;20424;-77
2021/07/09 12:03:49;;;;;;;8.30;3.83;;;;;;;33.22;43.95;101427.72;4864666;29;20029;-78
2021/07/09 12:06:35;;;;;;;7.28;3.53;;;;;;;33.74;44.07;101418.69;4864534;29;20172;-77
2021/07/09 12:09:21;;;;;;;7.45;3.72;;;;;;;33.68;43.44;101419.34;4863851;29;20044;-77
2021/07/09 12:12:06;;;;;;;6.53;3.33;;;;;;;34.21;42.33;101424.66;4865070;29;20044;-78
2021/07/09 12:14:57;;;;;;;6.20;3.72;;;;;;;34.05;41.38;101425.41;4864384;29;20048;-77
2021/07/09 12:17:52;;;;;;;5.18;3.47;;;;;;;33.68;41.04;101419.34;4863015;29;20061;-78
2021/07/09 12:20:43;;;;;;;5.82;3.75;;;;;;;34.29;41.42;101411.97;4852348;29;20033;-76
2021/07/09 12:23:33;;;;;;;7.18;3.55;;;;;;;34.04;40.74;101414.69;4850371;29;20022;-77
2021/07/09 12:26:19;;;;;;;5.45;3.60;;;;;;;34.97;40.28;101412.78;4852021;29;20044;-77
2021/07/09 12:29:05;;;;;;;7.25;3.95;;;;;;;34.53;39.78;101413.97;4863637;29;20045;-78
2021/07/09 12:31:50;;;;;;;5.95;3.80;;;;;;;34.56;40.66;101405.47;4849719;29;20060;-77
2021/07/09 12:34:39;;;;;;;7.60;3.75;;;;;;;34.98;40.40;101414.47;4863263;29;20037;-78
2021/07/09 12:37:25;;;;;;;7.38;4.30;;;;;;;35.51;40.61;101409.44;4863734;29;20029;-78
2021/07/09 12:40:17;;;;;;;6.57;3.80;;;;;;;34.71;39.58;101406.53;4863735;29;20065;-78